createdAt,value
2023-04-10T00:00:39.270Z,58.90
2023-04-10T00:01:40.886Z,62.15
2023-04-10T00:02:42.766Z,65.03
2023-04-10T00:03:44.437Z,60.33
2023-04-10T00:04:46.092Z,55.45
2023-04-10T00:05:47.541Z,53.95
2023-04-10T00:06:49.122Z,58.10
2023-04-10T00:07:50.825Z,62.55
2023-04-10T00:08:52.310Z,65.47
2023-04-10T00:09:53.779Z,63.58
2023-04-10T00:10:56.022Z,69.47
2023-04-10T00:11:57.636Z,67.95
2023-04-10T00:13:00.770Z,69.25
2023-04-10T00:14:02.178Z,70.70
2023-04-10T00:15:04.520Z,66.53
2023-04-10T00:16:06.553Z,64.25
2023-04-10T00:17:08.091Z,64.50
2023-04-10T00:18:09.600Z,66.43
2023-04-10T00:19:11.262Z,62.53
2023-04-10T00:20:12.844Z,66.30
2023-04-10T00:21:14.413Z,68.95
2023-04-10T00:22:15.915Z,67.95
2023-04-10T00:23:17.333Z,63.10
2023-04-10T00:24:18.738Z,67.13
2023-04-10T00:25:20.591Z,66.80
2023-04-10T00:26:23.768Z,66.45
2023-04-10T00:27:25.449Z,68.53
2023-04-10T00:28:27.261Z,66.32
2023-04-10T00:29:28.682Z,63.85
2023-04-10T00:30:30.115Z,65.45
2023-04-10T00:31:34.392Z,64.60
2023-04-10T00:32:36.035Z,63.67
2023-04-10T00:33:37.454Z,64.57
2023-04-10T00:34:38.917Z,69.03
2023-04-10T00:35:40.578Z,62.30
2023-04-10T00:36:42.302Z,67.85
2023-04-10T00:37:43.682Z,68.80
2023-04-10T00:38:45.212Z,72.22
2023-04-10T00:39:46.589Z,70.32
2023-04-10T00:40:48.354Z,69.47
2023-04-10T00:41:49.757Z,70.10
2023-04-10T00:42:51.291Z,69.97
2023-04-10T00:43:56.973Z,71.00
2023-04-10T00:44:59.159Z,71.65
2023-04-10T00:46:01.682Z,69.90
2023-04-10T00:47:05.444Z,67.70
2023-04-10T00:48:07.716Z,65.03
2023-04-10T00:49:09.549Z,66.20
2023-04-10T00:50:11.224Z,65.53
2023-04-10T00:51:12.896Z,65.43
2023-04-10T00:52:14.463Z,63.78
2023-04-10T00:53:16.611Z,68.68
2023-04-10T00:54:18.540Z,68.47
2023-04-10T00:55:20.261Z,65.03
2023-04-10T00:56:23.952Z,71.55
2023-04-10T00:57:27.078Z,78.97
2023-04-10T00:58:28.607Z,76.43
2023-04-10T00:59:30.485Z,78.90
2023-04-10T01:00:31.906Z,75.55
2023-04-10T01:01:33.434Z,76.60
2023-04-10T01:02:35.085Z,74.28
2023-04-10T01:03:38.406Z,69.60
2023-04-10T01:04:40.412Z,66.45
2023-04-10T01:06:02.283Z,72.72
2023-04-10T01:07:11.102Z,65.80
2023-04-10T01:08:24.800Z,72.03
2023-04-10T01:09:47.206Z,69.20
2023-04-10T01:10:56.631Z,69.00
2023-04-10T01:12:12.745Z,71.22
2023-04-10T01:13:25.366Z,69.78
2023-04-10T01:14:54.760Z,69.93
2023-04-10T01:16:09.224Z,67.25
2023-04-10T01:17:17.158Z,66.10
2023-04-10T01:18:53.077Z,71.05
2023-04-10T01:20:14.367Z,65.03
2023-04-10T01:21:17.351Z,68.82
2023-04-10T01:22:21.800Z,71.20
2023-04-10T01:23:32.445Z,74.75
2023-04-10T01:24:53.961Z,75.70
2023-04-10T01:26:04.075Z,72.47
2023-04-10T01:27:45.277Z,73.20
2023-04-10T01:29:04.109Z,63.25
2023-04-10T01:30:08.359Z,64.95
2023-04-10T01:31:15.482Z,67.75
2023-04-10T01:32:20.467Z,68.82
2023-04-10T01:33:26.550Z,69.35
2023-04-10T01:34:34.417Z,68.13
2023-04-10T01:35:37.224Z,67.72
2023-04-10T01:36:54.579Z,67.68
2023-04-10T01:37:57.289Z,62.90
2023-04-10T01:38:58.939Z,61.40
2023-04-10T01:40:03.276Z,62.30
2023-04-10T01:41:06.262Z,64.72
2023-04-10T01:42:10.696Z,65.10
2023-04-10T01:43:13.105Z,70.90
2023-04-10T01:44:16.635Z,71.07
2023-04-10T01:45:21.773Z,69.47
2023-04-10T01:46:25.095Z,67.60
2023-04-10T01:47:27.993Z,63.13
2023-04-10T01:48:30.081Z,62.45
2023-04-10T01:49:32.935Z,62.17
2023-04-10T01:50:35.475Z,62.78
2023-04-10T01:51:37.461Z,62.60
2023-04-10T01:52:41.064Z,66.90
2023-04-10T01:53:44.952Z,68.45
2023-04-10T01:54:48.485Z,67.97
2023-04-10T01:55:50.903Z,66.70
2023-04-10T01:56:52.794Z,69.10
2023-04-10T01:57:54.605Z,67.93
2023-04-10T01:58:56.562Z,61.72
2023-04-10T01:59:58.495Z,66.97
2023-04-10T02:00:59.895Z,68.10
2023-04-10T02:02:01.609Z,68.65
2023-04-10T02:03:03.501Z,72.43
2023-04-10T02:04:05.465Z,72.72
2023-04-10T02:05:07.239Z,66.80
2023-04-10T02:06:18.455Z,65.22
2023-04-10T02:07:49.080Z,68.95
2023-04-10T02:08:57.100Z,66.85
2023-04-10T02:10:24.771Z,72.72
2023-04-10T02:11:38.251Z,68.72
2023-04-10T02:12:45.915Z,69.72
2023-04-10T02:13:50.468Z,71.97
2023-04-10T02:14:56.116Z,74.03
2023-04-10T02:16:01.551Z,77.03
2023-04-10T02:17:06.555Z,76.80
2023-04-10T02:18:10.071Z,78.22
2023-04-10T02:19:13.110Z,76.47
2023-04-10T02:20:16.121Z,74.80
2023-04-10T02:21:17.828Z,75.03
2023-04-10T02:22:19.240Z,72.03
2023-04-10T02:23:21.077Z,67.78
2023-04-10T02:24:22.580Z,68.78
2023-04-10T02:25:23.976Z,67.82
2023-04-10T02:26:25.524Z,62.78
2023-04-10T02:27:33.882Z,60.78
2023-04-10T02:28:38.429Z,58.65
2023-04-10T02:29:39.849Z,60.65
2023-04-10T02:30:41.309Z,64.45
2023-04-10T02:31:43.736Z,67.47
2023-04-10T02:32:45.179Z,67.25
2023-04-10T02:33:47.370Z,69.05
2023-04-10T02:35:50.100Z,61.60
2023-04-10T02:36:52.137Z,60.63
2023-04-10T02:37:53.506Z,57.65
2023-04-10T02:38:54.951Z,55.20
2023-04-10T02:39:56.454Z,63.92
2023-04-10T02:40:57.878Z,64.32
2023-04-10T02:41:59.376Z,68.18
2023-04-10T02:43:01.376Z,67.95
2023-04-10T02:44:02.824Z,68.40
2023-04-10T02:45:04.647Z,71.28
2023-04-10T02:46:06.533Z,70.75
2023-04-10T02:47:08.241Z,69.25
2023-04-10T02:48:10.963Z,70.97
2023-04-10T02:49:12.375Z,75.70
2023-04-10T02:50:13.986Z,73.65
2023-04-10T02:51:15.609Z,73.63
2023-04-10T02:52:17.345Z,74.13
2023-04-10T02:53:19.824Z,70.97
2023-04-10T02:54:21.580Z,72.50
2023-04-10T02:55:22.979Z,67.07
2023-04-10T02:56:25.734Z,64.50
2023-04-10T02:57:27.242Z,60.05
2023-04-10T02:58:30.448Z,61.65
2023-04-10T02:59:33.112Z,59.92
2023-04-10T03:00:34.516Z,64.45
2023-04-10T03:01:36.443Z,57.08
2023-04-10T03:02:38.047Z,60.47
2023-04-10T03:03:39.716Z,59.10
2023-04-10T03:04:41.243Z,62.67
2023-04-10T03:05:42.740Z,60.83
2023-04-10T03:06:44.281Z,65.20
2023-04-10T03:07:45.766Z,67.15
2023-04-10T03:08:47.288Z,66.13
2023-04-10T03:09:48.716Z,69.72
2023-04-10T03:10:50.398Z,65.90
2023-04-10T03:11:52.045Z,66.07
2023-04-10T03:12:53.437Z,64.65
2023-04-10T03:13:55.155Z,63.35
2023-04-10T03:14:56.784Z,65.15
2023-04-10T03:15:58.235Z,67.55
2023-04-10T03:16:59.676Z,70.28
2023-04-10T03:18:01.178Z,72.35
2023-04-10T03:19:02.704Z,77.85
2023-04-10T03:20:04.382Z,71.88
2023-04-10T03:21:06.397Z,71.97
2023-04-10T03:22:07.960Z,67.38
2023-04-10T03:23:09.398Z,62.83
2023-04-10T03:24:10.832Z,63.47
2023-04-10T03:25:12.269Z,61.00
2023-04-10T03:26:13.661Z,65.25
2023-04-10T03:27:15.892Z,63.20
2023-04-10T03:28:17.394Z,69.35
2023-04-10T03:29:19.105Z,65.00
2023-04-10T03:30:20.883Z,74.03
2023-04-10T03:31:22.341Z,76.80
2023-04-10T03:32:23.879Z,75.93
2023-04-10T03:33:25.366Z,79.47
2023-04-10T03:34:26.770Z,67.82
2023-04-10T03:35:28.258Z,73.05
2023-04-10T03:36:29.727Z,69.65
2023-04-10T03:37:31.692Z,73.65
2023-04-10T03:38:33.356Z,75.55
2023-04-10T03:39:34.833Z,72.80
2023-04-10T03:40:36.292Z,74.72
2023-04-10T03:41:37.725Z,75.40
2023-04-10T03:42:39.142Z,80.97
2023-04-10T03:43:40.697Z,77.50
2023-04-10T03:44:42.099Z,70.70
2023-04-10T03:45:43.492Z,74.38
2023-04-10T03:46:44.944Z,74.45
2023-04-10T03:47:46.448Z,72.90
2023-04-10T03:48:49.497Z,74.03
2023-04-10T03:49:50.932Z,86.60
2023-04-10T03:50:52.338Z,80.82
2023-04-10T03:51:53.747Z,81.30
2023-04-10T03:52:55.477Z,80.38
2023-04-10T03:53:57.076Z,76.93
2023-04-10T03:54:58.579Z,76.57
2023-04-10T03:56:00.252Z,77.32
2023-04-10T03:57:01.931Z,72.90
2023-04-10T03:58:03.334Z,79.15
2023-04-10T03:59:04.824Z,91.88
2023-04-10T04:00:07.223Z,89.63
2023-04-10T04:01:08.699Z,89.80
2023-04-10T04:02:10.848Z,87.18
2023-04-10T04:03:12.625Z,81.15
2023-04-10T04:05:16.638Z,79.25
2023-04-10T04:06:18.218Z,90.65
2023-04-10T04:07:19.640Z,89.20
2023-04-10T04:08:21.032Z,93.68
2023-04-10T04:09:22.470Z,95.55
2023-04-10T04:10:24.325Z,101.18
2023-04-10T04:11:25.774Z,111.07
2023-04-10T04:12:27.199Z,130.00
2023-04-10T04:13:28.576Z,107.03
2023-04-10T04:14:30.179Z,101.85
2023-04-10T04:15:31.683Z,101.55
2023-04-10T04:16:33.385Z,90.15
2023-04-10T04:17:35.240Z,80.25
2023-04-10T04:18:36.737Z,89.00
2023-04-10T04:19:38.157Z,98.80
2023-04-10T04:20:39.635Z,85.82
2023-04-10T04:21:41.060Z,99.28
2023-04-10T04:22:42.526Z,92.47
2023-04-10T04:23:44.249Z,90.47
2023-04-10T04:24:45.686Z,94.13
2023-04-10T04:25:47.166Z,95.18
2023-04-10T04:26:49.852Z,92.82
2023-04-10T04:27:51.609Z,89.45
2023-04-10T04:28:53.086Z,83.05
2023-04-10T04:29:54.492Z,84.38
2023-04-10T04:30:55.951Z,82.35
2023-04-10T04:31:57.451Z,92.35
2023-04-10T04:32:59.071Z,89.93
2023-04-10T04:34:00.906Z,84.30
2023-04-10T04:35:02.510Z,82.60
2023-04-10T04:36:04.265Z,83.82
2023-04-10T04:37:05.919Z,81.43
2023-04-10T04:38:07.378Z,80.68
2023-04-10T04:39:08.812Z,90.70
2023-04-10T04:40:10.744Z,92.05
2023-04-10T04:41:12.289Z,86.88
2023-04-10T04:42:13.718Z,90.45
2023-04-10T04:43:15.238Z,86.40
2023-04-10T04:44:18.707Z,96.90
2023-04-10T04:45:21.766Z,72.65
2023-04-10T04:46:23.513Z,79.82
2023-04-10T04:47:25.216Z,80.22
2023-04-10T04:48:26.626Z,84.43
2023-04-10T04:49:28.100Z,81.65
2023-04-10T04:50:29.536Z,87.13
2023-04-10T04:51:31.048Z,76.25
2023-04-10T04:52:32.447Z,84.40
2023-04-10T04:53:33.876Z,80.22
2023-04-10T04:54:35.451Z,72.72
2023-04-10T04:55:36.992Z,82.40
2023-04-10T04:56:38.413Z,81.20
2023-04-10T04:57:39.833Z,84.30
2023-04-10T04:58:41.348Z,79.75
2023-04-10T04:59:42.775Z,87.93
2023-04-10T05:00:44.256Z,87.32
2023-04-10T05:01:45.837Z,77.38
2023-04-10T05:02:47.508Z,89.97
2023-04-10T05:03:49.195Z,84.95
2023-04-10T05:04:50.672Z,86.43
2023-04-10T05:05:52.071Z,83.68
2023-04-10T05:06:53.547Z,83.82
2023-04-10T05:07:55.015Z,85.32
2023-04-10T05:08:56.627Z,89.28
2023-04-10T05:09:58.118Z,87.47
2023-04-10T05:10:59.539Z,87.40
2023-04-10T05:12:00.945Z,93.85
2023-04-10T05:13:02.392Z,92.93
2023-04-10T05:14:03.882Z,93.80
2023-04-10T05:15:06.274Z,92.35
2023-04-10T05:16:08.160Z,92.93
2023-04-10T05:17:09.609Z,98.93
2023-04-10T05:18:11.356Z,98.90
2023-04-10T05:19:12.999Z,105.43
2023-04-10T05:20:14.600Z,102.43
2023-04-10T05:21:16.039Z,101.75
2023-04-10T05:22:18.637Z,104.88
2023-04-10T05:23:20.359Z,107.55
2023-04-10T05:24:21.997Z,109.60
2023-04-10T05:25:23.597Z,111.05
2023-04-10T05:26:24.977Z,105.60
2023-04-10T05:27:26.386Z,100.68
2023-04-10T05:28:27.875Z,97.65
2023-04-10T05:29:29.376Z,94.88
2023-04-10T05:30:30.803Z,91.45
2023-04-10T05:31:32.409Z,78.57
2023-04-10T05:32:33.935Z,79.75
2023-04-10T05:33:35.601Z,73.88
2023-04-10T05:34:37.063Z,68.35
2023-04-10T05:35:38.508Z,64.88
2023-04-10T05:36:39.937Z,62.03
2023-04-10T05:37:41.357Z,67.32
2023-04-10T05:38:42.763Z,63.55
2023-04-10T05:39:44.275Z,62.85
2023-04-10T05:40:45.807Z,62.33
2023-04-10T05:41:47.199Z,60.60
2023-04-10T05:42:48.608Z,60.30
2023-04-10T05:43:50.473Z,57.38
2023-04-10T05:44:52.829Z,59.95
2023-04-10T05:45:54.324Z,60.65
2023-04-10T05:46:55.767Z,57.17
2023-04-10T05:47:57.214Z,55.45
2023-04-10T05:48:58.739Z,51.25
2023-04-10T05:50:00.235Z,45.67
2023-04-10T05:51:01.641Z,48.33
2023-04-10T05:52:03.129Z,45.13
2023-04-10T05:53:04.600Z,42.85
2023-04-10T05:54:06.101Z,41.10
2023-04-10T05:55:08.292Z,38.80
2023-04-10T05:56:09.755Z,40.30
2023-04-10T05:57:11.222Z,39.58
2023-04-10T05:58:12.634Z,37.88
2023-04-10T05:59:14.063Z,40.47
2023-04-10T06:00:17.880Z,37.42
2023-04-10T06:01:19.426Z,39.50
2023-04-10T06:02:21.859Z,40.13
2023-04-10T06:03:24.033Z,37.38
2023-04-10T06:04:25.855Z,36.45
2023-04-10T06:05:27.756Z,33.45
2023-04-10T06:06:29.720Z,35.22
2023-04-10T06:07:33.151Z,31.60
2023-04-10T06:08:34.733Z,28.27
2023-04-10T06:09:36.449Z,33.38
2023-04-10T06:10:38.173Z,32.20
2023-04-10T06:11:39.640Z,29.50
2023-04-10T06:12:41.586Z,28.63
2023-04-10T06:13:42.994Z,27.60
2023-04-10T06:14:44.517Z,27.48
2023-04-10T06:15:46.006Z,29.40
2023-04-10T06:16:47.668Z,29.33
2023-04-10T06:17:49.141Z,27.67
2023-04-10T06:18:52.613Z,27.63
2023-04-10T06:19:54.318Z,27.55
2023-04-10T06:20:58.026Z,29.17
2023-04-10T06:21:59.427Z,29.88
2023-04-10T06:23:01.039Z,30.48
2023-04-10T06:24:02.513Z,29.63
2023-04-10T06:25:05.333Z,29.92
2023-04-10T06:26:06.932Z,32.15
2023-04-10T06:27:08.952Z,25.33
2023-04-10T06:29:12.290Z,24.90
2023-04-10T06:31:15.464Z,27.70
2023-04-10T06:33:18.413Z,26.33
2023-04-10T06:34:19.898Z,26.50
2023-04-10T06:35:21.802Z,26.48
2023-04-10T06:36:23.330Z,26.17
2023-04-10T06:37:29.906Z,27.25
2023-04-10T06:38:31.516Z,28.10
2023-04-10T06:39:32.958Z,31.52
2023-04-10T06:40:34.481Z,30.63
2023-04-10T06:41:35.925Z,29.52
2023-04-10T06:42:37.892Z,29.85
2023-04-10T06:44:40.686Z,28.55
2023-04-10T06:45:42.075Z,27.67
2023-04-10T06:46:43.553Z,27.73
2023-04-10T06:47:45.033Z,28.73
2023-04-10T06:48:46.441Z,28.13
2023-04-10T06:49:47.859Z,30.25
2023-04-10T06:50:49.282Z,30.45
2023-04-10T06:51:51.010Z,29.85
2023-04-10T06:52:55.784Z,31.75
2023-04-10T06:53:57.224Z,31.63
2023-04-10T06:54:58.609Z,28.92
2023-04-10T06:56:02.938Z,30.00
2023-04-10T06:57:05.373Z,31.17
2023-04-10T06:58:06.774Z,30.48
2023-04-10T06:59:08.214Z,28.80
2023-04-10T07:00:10.400Z,31.80
2023-04-10T07:01:11.836Z,31.33
2023-04-10T07:02:13.455Z,32.72
2023-04-10T07:03:15.046Z,32.55
2023-04-10T07:04:16.550Z,34.45
2023-04-10T07:05:18.066Z,32.17
2023-04-10T07:06:19.556Z,33.15
2023-04-10T07:07:21.329Z,34.05
2023-04-10T07:08:22.792Z,33.10
2023-04-10T07:09:27.893Z,33.50
2023-04-10T07:10:29.377Z,37.05
2023-04-10T07:11:30.851Z,33.38
2023-04-10T07:12:32.621Z,36.72
2023-04-10T07:13:35.593Z,34.40
2023-04-10T07:14:37.096Z,33.47
2023-04-10T07:15:38.644Z,33.58
2023-04-10T07:16:40.181Z,34.80
2023-04-10T07:17:41.694Z,36.17
2023-04-10T07:18:44.295Z,37.50
2023-04-10T07:19:47.115Z,34.90
2023-04-10T07:20:49.977Z,34.00
2023-04-10T07:21:51.432Z,34.22
2023-04-10T07:22:52.913Z,32.35
2023-04-10T07:23:54.802Z,32.50
2023-04-10T07:24:56.369Z,31.58
2023-04-10T07:25:58.245Z,33.85
2023-04-10T07:27:01.436Z,33.42
2023-04-10T07:28:02.896Z,31.60
2023-04-10T07:29:04.321Z,33.63
2023-04-10T07:30:06.677Z,35.17
2023-04-10T07:31:08.482Z,32.95
2023-04-10T07:32:10.043Z,35.08
2023-04-10T07:33:11.846Z,33.58
2023-04-10T07:35:15.039Z,30.33
2023-04-10T07:36:16.545Z,31.60
2023-04-10T07:37:18.240Z,31.58
2023-04-10T07:38:19.752Z,31.90
2023-04-10T07:39:21.220Z,32.70
2023-04-10T07:40:22.635Z,30.70
2023-04-10T07:41:24.108Z,32.40
2023-04-10T07:42:25.745Z,29.85
2023-04-10T07:43:27.188Z,35.50
2023-04-10T07:44:28.660Z,31.25
2023-04-10T07:45:30.273Z,34.28
2023-04-10T07:46:31.774Z,28.52
2023-04-10T07:47:33.230Z,29.90
2023-04-10T07:48:34.733Z,32.58
2023-04-10T07:49:36.727Z,31.40
2023-04-10T07:51:39.492Z,28.73
2023-04-10T07:52:40.916Z,29.80
2023-04-10T07:53:42.396Z,30.05
2023-04-10T07:54:43.872Z,29.73
2023-04-10T07:55:48.744Z,29.58
2023-04-10T07:56:52.446Z,31.80
2023-04-10T07:57:53.878Z,30.25
2023-04-10T07:58:55.510Z,31.40
2023-04-10T07:59:57.186Z,29.83
2023-04-10T08:00:58.965Z,29.67
2023-04-10T08:02:00.603Z,28.80
2023-04-10T08:03:02.503Z,31.65
2023-04-10T08:05:08.054Z,28.85
2023-04-10T08:07:11.324Z,26.23
2023-04-10T08:08:12.819Z,29.10
2023-04-10T08:09:14.233Z,29.23
2023-04-10T08:10:15.864Z,28.70
2023-04-10T08:11:31.867Z,30.92
2023-04-10T08:12:34.397Z,29.25
2023-04-10T08:13:36.011Z,29.60
2023-04-10T08:14:37.414Z,29.50
2023-04-10T08:15:38.804Z,28.70
2023-04-10T08:16:40.361Z,31.77
2023-04-10T08:17:41.932Z,28.60
2023-04-10T08:18:43.371Z,27.85
2023-04-10T08:19:44.789Z,27.42
2023-04-10T08:20:46.211Z,27.88
2023-04-10T08:21:47.630Z,26.38
2023-04-10T08:22:49.039Z,27.42
2023-04-10T08:23:55.192Z,26.05
2023-04-10T08:24:56.620Z,26.23
2023-04-10T08:25:58.014Z,25.83
2023-04-10T08:26:59.425Z,26.60
2023-04-10T08:28:01.000Z,25.35
2023-04-10T08:29:02.487Z,26.55
2023-04-10T08:30:04.726Z,26.25
2023-04-10T08:31:06.499Z,28.17
2023-04-10T08:32:08.145Z,26.50
2023-04-10T08:33:09.583Z,26.35
2023-04-10T08:34:11.326Z,26.95
2023-04-10T08:35:12.765Z,26.70
2023-04-10T08:36:20.199Z,25.92
2023-04-10T08:37:22.577Z,28.15
2023-04-10T08:38:25.052Z,25.65
2023-04-10T08:39:26.455Z,24.52
2023-04-10T08:40:27.999Z,26.92
2023-04-10T08:41:29.497Z,26.40
2023-04-10T08:42:32.192Z,25.23
2023-04-10T08:43:35.472Z,25.48
2023-04-10T08:44:37.923Z,24.60
2023-04-10T08:45:41.207Z,24.83
2023-04-10T08:46:45.520Z,25.02
2023-04-10T08:47:50.629Z,24.00
2023-04-10T08:48:59.521Z,23.83
2023-04-10T08:50:06.043Z,24.20
2023-04-10T08:51:18.674Z,23.50
2023-04-10T08:52:24.915Z,24.85
2023-04-10T08:53:30.986Z,25.13
2023-04-10T08:54:38.733Z,24.23
2023-04-10T08:55:41.154Z,23.92
2023-04-10T08:56:46.902Z,22.92
2023-04-10T08:57:58.041Z,23.02
2023-04-10T08:59:05.304Z,22.10
2023-04-10T09:01:29.035Z,20.27
2023-04-10T09:02:30.789Z,21.15
2023-04-10T09:03:32.792Z,19.63
2023-04-10T09:04:34.666Z,17.75
2023-04-10T09:05:37.005Z,18.73
2023-04-10T09:06:38.566Z,20.63
2023-04-10T09:07:40.101Z,19.20
2023-04-10T09:08:41.532Z,19.48
2023-04-10T09:09:43.350Z,18.98
2023-04-10T09:10:44.758Z,19.17
2023-04-10T09:11:52.386Z,19.38
2023-04-10T09:12:53.946Z,18.85
2023-04-10T09:13:55.512Z,20.58
2023-04-10T09:14:57.193Z,20.75
2023-04-10T09:15:59.508Z,19.05
2023-04-10T09:17:30.532Z,18.85
2023-04-10T09:18:51.550Z,18.60
2023-04-10T09:19:56.375Z,18.02
2023-04-10T09:21:07.074Z,17.67
2023-04-10T09:22:09.358Z,17.40
2023-04-10T09:23:23.015Z,18.25
2023-04-10T09:24:25.102Z,17.50
2023-04-10T09:25:36.685Z,17.48
2023-04-10T09:26:38.117Z,18.40
2023-04-10T09:27:40.180Z,17.23
2023-04-10T09:29:10.251Z,17.42
2023-04-10T09:30:32.127Z,16.77
2023-04-10T09:31:38.743Z,17.50
2023-04-10T09:32:43.135Z,16.67
2023-04-10T09:33:44.616Z,17.67
2023-04-10T09:34:54.688Z,17.42
2023-04-10T09:36:00.448Z,16.23
2023-04-10T09:37:02.079Z,17.35
2023-04-10T09:38:16.774Z,16.65
2023-04-10T09:39:18.455Z,15.18
2023-04-10T09:40:22.857Z,16.17
2023-04-10T09:41:24.292Z,18.45
2023-04-10T09:42:37.275Z,18.08
2023-04-10T09:43:39.046Z,17.70
2023-04-10T09:44:41.470Z,17.90
2023-04-10T09:45:50.989Z,18.05
2023-04-10T09:46:52.575Z,16.77
2023-04-10T09:48:08.336Z,16.83
2023-04-10T09:49:09.977Z,17.50
2023-04-10T09:50:11.443Z,17.48
2023-04-10T09:51:31.610Z,17.60
2023-04-10T09:52:38.164Z,17.10
2023-04-10T09:53:50.426Z,16.55
2023-04-10T09:54:53.912Z,15.73
2023-04-10T09:55:56.201Z,16.30
2023-04-10T09:56:58.144Z,16.38
2023-04-10T09:58:00.603Z,18.40
2023-04-10T09:59:04.701Z,18.55
2023-04-10T10:00:09.763Z,16.90
2023-04-10T10:01:12.830Z,15.32
2023-04-10T10:02:16.435Z,15.52
2023-04-10T10:03:21.148Z,16.30
2023-04-10T10:04:23.495Z,18.08
2023-04-10T10:05:30.399Z,15.65
2023-04-10T10:06:32.901Z,15.27
2023-04-10T10:07:34.809Z,13.05
2023-04-10T10:09:38.537Z,11.60
2023-04-10T10:10:51.044Z,13.50
2023-04-10T10:11:53.105Z,13.27
2023-04-10T10:13:01.797Z,12.68
2023-04-10T10:14:08.482Z,12.65
2023-04-10T10:15:22.368Z,12.15
2023-04-10T10:16:39.036Z,11.95
2023-04-10T10:17:55.358Z,12.02
2023-04-10T10:19:22.066Z,11.10
2023-04-10T10:20:26.149Z,11.77
2023-04-10T10:21:29.654Z,11.45
2023-04-10T10:22:32.413Z,12.48
2023-04-10T10:23:34.229Z,12.23
2023-04-10T10:24:38.355Z,12.38
2023-04-10T10:25:40.372Z,11.20
2023-04-10T10:26:43.144Z,12.38
2023-04-10T10:27:46.276Z,11.75
2023-04-10T10:28:50.970Z,12.23
2023-04-10T10:29:54.719Z,11.00
2023-04-10T10:30:56.317Z,9.80
2023-04-10T10:32:02.841Z,9.88
2023-04-10T10:33:07.217Z,10.48
2023-04-10T10:34:09.657Z,11.23
2023-04-10T10:35:11.295Z,10.65
2023-04-10T10:36:14.833Z,10.75
2023-04-10T10:37:17.204Z,10.43
2023-04-10T10:38:19.106Z,10.32
2023-04-10T10:40:44.152Z,10.07
2023-04-10T10:41:58.322Z,9.88
2023-04-10T10:43:12.179Z,10.68
2023-04-10T10:44:22.054Z,9.93
2023-04-10T10:45:50.938Z,10.27
2023-04-10T10:46:59.363Z,10.77
2023-04-10T10:48:00.838Z,10.23
2023-04-10T10:49:02.382Z,10.48
2023-04-10T10:50:04.101Z,10.77
2023-04-10T10:51:05.908Z,11.23
2023-04-10T10:53:08.692Z,10.07
2023-04-10T10:54:31.680Z,14.75
2023-04-10T10:55:37.112Z,10.65
2023-04-10T10:56:38.568Z,11.68
2023-04-10T10:57:47.713Z,11.93
2023-04-10T10:58:56.141Z,11.02
2023-04-10T10:59:58.011Z,12.13
2023-04-10T11:00:59.413Z,11.60
2023-04-10T11:02:14.009Z,10.82
2023-04-10T11:03:15.607Z,10.73
2023-04-10T11:04:42.749Z,11.00
2023-04-10T11:06:06.859Z,10.57
2023-04-10T11:07:08.378Z,11.43
2023-04-10T11:08:09.786Z,11.02
2023-04-10T11:09:47.591Z,11.80
2023-04-10T11:11:06.314Z,11.65
2023-04-10T11:12:07.796Z,11.25
2023-04-10T11:13:17.215Z,11.90
2023-04-10T11:14:19.289Z,10.50
2023-04-10T11:15:24.249Z,10.85
2023-04-10T11:16:36.294Z,10.20
2023-04-10T11:17:54.377Z,11.68
2023-04-10T11:19:13.088Z,10.52
2023-04-10T11:20:17.075Z,11.38
2023-04-10T11:21:20.875Z,11.93
2023-04-10T11:22:22.324Z,12.45
2023-04-10T11:23:24.066Z,14.43
2023-04-10T11:24:26.667Z,13.27
2023-04-10T11:26:03.754Z,13.27
2023-04-10T11:27:05.181Z,13.23
2023-04-10T11:28:06.763Z,10.68
2023-04-10T11:29:20.189Z,10.73
2023-04-10T11:30:35.719Z,10.82
2023-04-10T11:31:37.283Z,11.88
2023-04-10T11:32:42.192Z,11.43
2023-04-10T11:33:43.984Z,11.00
2023-04-10T11:34:45.782Z,11.57
2023-04-10T11:35:47.712Z,11.52
2023-04-10T11:36:49.256Z,10.40
2023-04-10T11:37:51.614Z,11.30
2023-04-10T11:38:56.220Z,11.93
2023-04-10T11:40:05.465Z,11.60
2023-04-10T11:41:07.122Z,11.77
2023-04-10T11:42:11.565Z,11.18
2023-04-10T11:43:15.855Z,12.18
2023-04-10T11:44:39.049Z,12.10
2023-04-10T11:45:40.573Z,11.82
2023-04-10T11:46:48.270Z,11.85
2023-04-10T11:47:53.728Z,12.20
2023-04-10T11:48:58.405Z,11.45
2023-04-10T11:49:59.886Z,10.55
2023-04-10T11:51:09.556Z,11.27
2023-04-10T11:52:11.016Z,11.27
2023-04-10T11:53:20.017Z,11.65
2023-04-10T11:54:23.628Z,11.55
2023-04-10T11:55:39.111Z,18.92
2023-04-10T11:56:43.081Z,11.15
2023-04-10T11:57:45.860Z,12.48
2023-04-10T11:58:53.987Z,14.32
2023-04-10T11:59:55.677Z,10.80
2023-04-10T12:01:04.697Z,10.45
2023-04-10T12:02:11.690Z,11.88
2023-04-10T12:03:13.439Z,10.98
2023-04-10T12:04:17.468Z,10.75
2023-04-10T12:05:19.407Z,10.18
2023-04-10T12:06:21.109Z,10.00
2023-04-10T12:07:24.132Z,10.13
2023-04-10T12:08:37.261Z,11.88
2023-04-10T12:09:38.738Z,10.73
2023-04-10T12:10:47.140Z,10.30
2023-04-10T12:12:03.341Z,10.18
2023-04-10T12:13:06.223Z,10.70
2023-04-10T12:14:08.151Z,10.05
2023-04-10T12:15:26.531Z,10.73
2023-04-10T12:16:28.183Z,9.55
2023-04-10T12:17:30.011Z,9.80
2023-04-10T12:18:31.846Z,10.15
2023-04-10T12:19:34.456Z,9.15
2023-04-10T12:20:35.942Z,9.38
2023-04-10T12:21:38.651Z,9.40
2023-04-10T12:22:40.446Z,9.38
2023-04-10T12:23:42.420Z,9.55
2023-04-10T12:24:46.622Z,9.27
2023-04-10T12:25:48.154Z,9.68
2023-04-10T12:26:49.812Z,8.43
2023-04-10T12:27:51.672Z,8.45
2023-04-10T12:30:08.171Z,7.88
2023-04-10T12:31:10.039Z,7.45
2023-04-10T12:32:11.652Z,6.80
2023-04-10T12:33:13.405Z,7.90
2023-04-10T12:34:18.988Z,6.15
2023-04-10T12:35:20.577Z,6.90
2023-04-10T12:36:24.019Z,7.80
2023-04-10T12:37:46.234Z,8.50
2023-04-10T12:38:47.785Z,7.85
2023-04-10T12:39:49.763Z,8.02
2023-04-10T12:41:01.226Z,8.13
2023-04-10T12:42:16.646Z,7.80
2023-04-10T12:43:39.436Z,8.30
2023-04-10T12:44:57.477Z,6.95
2023-04-10T12:45:58.960Z,7.15
2023-04-10T12:47:01.774Z,7.00
2023-04-10T12:48:03.341Z,7.20
2023-04-10T12:49:12.971Z,7.13
2023-04-10T12:50:16.277Z,6.97
2023-04-10T12:51:17.710Z,6.90
2023-04-10T12:52:23.130Z,6.63
2023-04-10T12:53:25.546Z,7.85
2023-04-10T12:54:37.104Z,7.45
2023-04-10T12:55:38.664Z,7.03
2023-04-10T12:56:44.560Z,7.63
2023-04-10T12:57:47.784Z,7.13
2023-04-10T12:58:49.236Z,7.43
2023-04-10T12:59:51.744Z,7.03
2023-04-10T13:00:53.646Z,7.35
2023-04-10T13:01:55.467Z,8.38
2023-04-10T13:02:57.165Z,8.15
2023-04-10T13:03:58.839Z,8.70
2023-04-10T13:05:00.501Z,7.90
2023-04-10T13:06:03.184Z,8.10
2023-04-10T13:07:04.670Z,8.15
2023-04-10T13:08:06.175Z,8.30
2023-04-10T13:09:07.560Z,9.05
2023-04-10T13:10:09.378Z,9.05
2023-04-10T13:12:13.302Z,7.72
2023-04-10T13:13:15.454Z,8.00
2023-04-10T13:14:16.945Z,8.35
2023-04-10T13:15:18.438Z,8.80
2023-04-10T13:16:19.916Z,8.63
2023-04-10T13:17:22.174Z,8.52
2023-04-10T13:18:23.593Z,9.45
2023-04-10T13:19:25.130Z,8.38
2023-04-10T13:20:26.636Z,8.40
2023-04-10T13:21:29.425Z,8.45
2023-04-10T13:22:30.878Z,8.93
2023-04-10T13:23:32.277Z,9.00
2023-04-10T13:24:33.699Z,7.97
2023-04-10T13:25:39.704Z,8.52
2023-04-10T13:26:41.289Z,9.10
2023-04-10T13:27:42.753Z,8.52
2023-04-10T13:28:44.255Z,7.82
2023-04-10T13:29:46.061Z,8.18
2023-04-10T13:31:50.194Z,8.23
2023-04-10T13:32:51.735Z,8.60
2023-04-10T13:33:53.149Z,8.52
2023-04-10T13:34:54.819Z,8.73
2023-04-10T13:35:56.323Z,8.48
2023-04-10T13:36:57.956Z,9.02
2023-04-10T13:38:00.528Z,8.88
2023-04-10T13:39:01.961Z,8.77
2023-04-10T13:40:05.068Z,8.85
2023-04-10T13:41:06.735Z,8.95
2023-04-10T13:42:08.167Z,10.30
2023-04-10T13:43:09.552Z,9.00
2023-04-10T13:44:10.946Z,8.60
2023-04-10T13:45:12.378Z,8.48
2023-04-10T13:46:13.869Z,8.93
2023-04-10T13:47:15.530Z,8.95
2023-04-10T13:48:22.300Z,9.45
2023-04-10T13:49:31.396Z,8.70
2023-04-10T13:50:36.091Z,8.73
2023-04-10T13:51:37.492Z,8.07
2023-04-10T13:52:38.957Z,8.60
2023-04-10T13:53:40.389Z,8.68
2023-04-10T13:54:41.809Z,10.45
2023-04-10T13:55:44.231Z,9.07
2023-04-10T13:57:47.707Z,8.63
2023-04-10T13:58:49.193Z,9.10
2023-04-10T13:59:50.635Z,8.80
2023-04-10T14:00:52.220Z,8.82
2023-04-10T14:01:53.844Z,8.60
2023-04-10T14:02:55.574Z,8.55
2023-04-10T14:03:57.278Z,7.85